Flight Track Log - Related Links

Times and Time Zones

All times are in EDT time to prevent confusion due to time zone crossing. See the FDX1286 flight status page for this flight to view local times or setup timezone preferences in your user account.

Time Position Orientation Groundspeed Altitude Reporting Facility
EDT Latitude Longitude Course Direction KTS MPH feet Rate Location/Type
Fri 11:47:58 PM 39.7950 -82.9570 230° Southwest 185 213 2,000  Level FlightAware ADS-B
Fri 11:48:19 PM 39.7820 -82.9790 232° Southwest 226 260 2,600 2,100 Climbing FlightAware ADS-B
Fri 11:48:38 PM 39.7720 -83.0030 242° Southwest 253 291 3,400 3,167 Climbing FlightAware ADS-B
Fri 11:48:55 PM 39.7610 -83.0260 238° Southwest 260 299 4,500 3,892 Climbing FlightAware ADS-B
Fri 11:49:15 PM 39.7490 -83.0550 242° Southwest 265 305 5,800 3,600 Climbing FlightAware ADS-B
Fri 11:49:35 PM 39.7370 -83.0840 242° Southwest 280 322 6,900 3,300 Climbing FlightAware ADS-B
Fri 11:49:55 PM 39.7240 -83.1130 240° Southwest 289 333 8,000 3,450 Climbing FlightAware ADS-B
Fri 11:50:15 PM 39.7110 -83.1440 241° Southwest 293 337 9,200 2,893 Climbing FlightAware ADS-B
Fri 11:50:51 PM 39.6860 -83.2010 240° Southwest 326 375 10,700 2,167 Climbing FlightAware ADS-B
Fri 11:51:27 PM 39.6580 -83.2670 241° Southwest 368 423 11,800 1,775 Climbing FlightAware ADS-B
Fri 11:52:02 PM 39.6270 -83.3380 240° Southwest 409 471 12,800 2,197 Climbing FlightAware ADS-B
Fri 11:52:38 PM 39.5920 -83.4180 240° Southwest 429 494 14,400 2,833 Climbing FlightAware ADS-B
Fri 11:53:14 PM 39.5560 -83.4990 240° Southwest 439 505 16,200 3,045 Climbing FlightAware ADS-B
Fri 11:53:45 PM 39.5250 -83.5700 241° Southwest 443 510 17,800 2,783 Climbing FlightAware ADS-B
Fri 11:54:23 PM 39.4850 -83.6600 240° Southwest 459 528 19,400 2,514 Climbing FlightAware ADS-B
Fri 11:54:59 PM 39.4460 -83.7470 240° Southwest 469 540 20,900 2,471 Climbing FlightAware ADS-B
Fri 11:55:31 PM 39.4110 -83.8250 240° Southwest 478 550 22,200 2,471 Climbing FlightAware ADS-B
Fri 11:56:07 PM 39.3720 -83.9150 241° Southwest 482 555 23,700 2,282 Climbing FlightAware ADS-B
Fri 11:56:42 PM 39.3270 -83.9990 235° Southwest 497 572 24,900 1,833 Climbing FlightAware ADS-B
Fri 11:57:19 PM 39.2630 -84.0690 220° Southwest 512 589 25,900 1,500 Climbing FlightAware ADS-B
Fri 11:57:50 PM 39.2060 -84.1300 220° Southwest 524 603 26,600 1,791 Climbing FlightAware ADS-B
Fri 11:58:26 PM 39.1370 -84.2040 220° Southwest 526 605 27,900 2,486 Climbing FlightAware ADS-B
Fri 11:59:00 PM 39.0730 -84.2710 219° Southwest 517 595 29,500 2,486 Climbing FlightAware ADS-B
Fri 11:59:36 PM 39.0070 -84.3410 220° Southwest 515 593 30,800 1,917 Climbing FlightAware ADS-B
Sat 12:00:12 AM 38.9380 -84.4130 219° Southwest 520 598 31,800 1,917 Climbing FlightAware ADS-B
Sat 12:00:48 AM 38.8730 -84.4810 219° Southwest 516 594 33,100 2,314 Climbing FlightAware ADS-B
Sat 12:01:22 AM 38.8100 -84.5460 219° Southwest 506 582 34,500 1,971 Climbing FlightAware ADS-B
Sat 12:01:58 AM 38.7450 -84.6140 219° Southwest 507 583 35,400 1,250 Climbing FlightAware ADS-B
Sat 12:02:34 AM 38.6780 -84.6840 219° Southwest 508 585 36,000 537 Climbing FlightAware ADS-B
Sat 12:03:05 AM 38.6220 -84.7410 218° Southwest 511 588 36,000  Level FlightAware ADS-B
Sat 12:03:40 AM 38.5560 -84.8100 219° Southwest 510 587 36,000  Level FlightAware ADS-B
Sat 12:04:18 AM 38.4880 -84.8800 219° Southwest 510 587 36,000  Level FlightAware ADS-B
Sat 12:04:50 AM 38.4280 -84.9420 219° Southwest 510 587 36,000  Level FlightAware ADS-B
Sat 12:05:26 AM 38.3640 -85.0080 219° Southwest 509 586 36,000  Level FlightAware ADS-B
Sat 12:06:03 AM 38.2970 -85.0760 219° Southwest 509 586 36,000  Level FlightAware ADS-B
Sat 12:06:38 AM 38.2320 -85.1440 219° Southwest 510 587 36,000  Level FlightAware ADS-B
Sat 12:07:12 AM 38.1670 -85.2100 219° Southwest 510 587 36,000  Level FlightAware ADS-B
Sat 12:07:48 AM 38.1020 -85.2750 218° Southwest 510 587 36,000  Level FlightAware ADS-B
Sat 12:08:22 AM 38.0390 -85.3390 219° Southwest 510 587 36,000  Level FlightAware ADS-B
Sat 12:08:58 AM 37.9740 -85.4060 219° Southwest 509 586 36,000  Level FlightAware ADS-B
Sat 12:09:34 AM 37.9070 -85.4730 218° Southwest 509 586 36,000  Level FlightAware ADS-B
Sat 12:10:04 AM 37.8520 -85.5290 219° Southwest 510 587 36,000  Level FlightAware ADS-B
Sat 12:10:42 AM 37.7820 -85.6000 219° Southwest 509 586 36,000  Level FlightAware ADS-B
Sat 12:11:25 AM 37.7110 -85.6700 218° Southwest 509 586 36,000  Level FlightAware ADS-B
Sat 12:11:57 AM 37.6470 -85.7350 219° Southwest 509 586 36,000  Level FlightAware ADS-B
Sat 12:12:25 AM 37.5898 -85.7920 218° Southwest 510 587 36,000  Level FlightAware ADS-B
Sat 12:13:04 AM 37.5179 -85.8639 218° Southwest 509 586 36,000  Level FlightAware ADS-B
Sat 12:13:36 AM 37.4594 -85.9212 218° Southwest 511 588 36,000  Level FlightAware ADS-B
Sat 12:14:09 AM 37.3981 -85.9816 218° Southwest 511 588 36,000  Level FlightAware ADS-B
Sat 12:14:53 AM 37.3210 -86.0590 219° Southwest 510 587 36,000  Level FlightAware ADS-B
Sat 12:15:31 AM 37.2468 -86.1321 218° Southwest 511 588 36,000  Level FlightAware ADS-B
Sat 12:16:02 AM 37.1875 -86.1907 218° Southwest 511 588 36,000  Level FlightAware ADS-B
Sat 12:16:32 AM 37.1316 -86.2455 218° Southwest 510 587 36,000  Level FlightAware ADS-B
Sat 12:17:02 AM 37.0754 -86.3004 218° Southwest 511 588 36,000  Level FlightAware ADS-B
Sat 12:17:33 AM 37.0199 -86.3550 218° Southwest 511 588 36,000  Level FlightAware ADS-B
Sat 12:17:54 AM 36.9802 -86.3934 218° Southwest 510 587 36,000  Level FlightAware ADS-B
Sat 12:18:04 AM 36.9622 -86.4128 221° Southwest 507 583 36,000  Level FlightAware ADS-B
Sat 12:18:18 AM 36.9397 -86.4420 226° Southwest 503 579 36,000  Level FlightAware ADS-B
Sat 12:18:33 AM 36.9183 -86.4761 232° Southwest 499 574 36,000  Level FlightAware ADS-B
Sat 12:18:46 AM 36.9017 -86.5069 236° Southwest 494 568 36,000  Level FlightAware ADS-B
Sat 12:19:17 AM 36.8680 -86.5838 241° Southwest 492 566 36,000  Level FlightAware ADS-B
Sat 12:19:47 AM 36.8336 -86.6608 241° Southwest 492 566 36,000  Level FlightAware ADS-B
Sat 12:20:18 AM 36.8002 -86.7352 241° Southwest 492 566 36,000  Level FlightAware ADS-B
Sat 12:20:55 AM 36.7597 -86.8265 241° Southwest 488 562 36,000 -400 Level FlightAware ADS-B
Sat 12:21:48 AM 36.7016 -86.9591 241° Southwest 487 560 35,400 -813 Descending FlightAware ADS-B
Sat 12:22:31 AM 36.6550 -87.0630 241° Southwest 495 570 34,700 -892 Descending FlightAware ADS-B
Sat 12:23:02 AM 36.6210 -87.1370 240° Southwest 491 565 34,300 -618 Descending FlightAware ADS-B
Sat 12:23:39 AM 36.5790 -87.2310 241° Southwest 492 566 34,000 -247 Descending FlightAware ADS-B
Sat 12:24:15 AM 36.5400 -87.3200 241° Southwest 488 562 34,000  Level FlightAware ADS-B
Sat 12:24:48 AM 36.5030 -87.4010 240° Southwest 491 565 34,000  Level FlightAware ADS-B
Sat 12:25:23 AM 36.4630 -87.4900 241° Southwest 495 570 34,000  Level FlightAware ADS-B
Sat 12:25:58 AM 36.4260 -87.5720 241° Southwest 498 573 34,000  Level FlightAware ADS-B
Sat 12:26:35 AM 36.3830 -87.6670 241° Southwest 496 571 34,000  Level FlightAware ADS-B
Sat 12:27:07 AM 36.3470 -87.7460 241° Southwest 495 570 34,000 -1,043 Level FlightAware ADS-B
Sat 12:27:44 AM 36.3070 -87.8330 240° Southwest 482 555 32,800 -2,838 Descending FlightAware ADS-B
Sat 12:28:21 AM 36.2650 -87.9250 241° Southwest 490 564 30,500 -3,304 Descending FlightAware ADS-B
Sat 12:28:53 AM 36.2290 -88.0040 241° Southwest 486 559 29,000 -2,625 Descending FlightAware ADS-B
Sat 12:29:25 AM 36.1940 -88.0800 240° Southwest 474 545 27,700 -1,391 Descending FlightAware ADS-B
Sat 12:30:02 AM 36.1590 -88.1550 240° Southwest 474 545 27,400 -240 Descending FlightAware ADS-B
Sat 12:30:40 AM 36.1230 -88.2310 240° Southwest 474 545 27,400  Level FlightAware ADS-B
Sat 12:31:17 AM 36.0890 -88.3050 240° Southwest 474 545 27,400  Level FlightAware ADS-B
Sat 12:31:53 AM 36.0550 -88.3770 240° Southwest 474 545 27,400  Level FlightAware ADS-B
Sat 12:32:29 AM 36.0220 -88.4490 240° Southwest 474 545 27,400 -5,391 Level FlightAware ADS-B
Sat 12:33:02 AM 35.9790 -88.5430 241° Southwest 407 468 21,200 -5,167 Descending FlightAware ADS-B
Sat 12:33:41 AM 35.9470 -88.6090 239° Southwest 407 468 21,200 -1,084 Level FlightAware ADS-B
Sat 12:34:25 AM 35.9050 -88.6990 240° Southwest 393 452 19,700 -2,526 Descending FlightAware ADS-B
Sat 12:34:57 AM 35.8730 -88.7700 241° Southwest 383 441 18,000 -2,344 Descending FlightAware ADS-B
Sat 12:35:29 AM 35.8440 -88.8300 239° Southwest 380 437 17,200 -1,569 Descending FlightAware ADS-B
Sat 12:36:02 AM 35.8150 -88.8920 240° Southwest 375 432 16,300 -740 Descending FlightAware ADS-B
Sat 12:36:42 AM 35.7850 -88.9550 240° Southwest 375 432 16,300  Level FlightAware ADS-B
Sat 12:37:19 AM 35.7580 -89.0130 240° Southwest 375 432 16,300  Level FlightAware ADS-B
Sat 12:37:55 AM 35.7310 -89.0700 240° Southwest 375 432 16,300  Level FlightAware ADS-B
Sat 12:38:31 AM 35.7050 -89.1260 240° Southwest 375 432 16,300 -4,333 Level FlightAware ADS-B
Sat 12:38:49 AM 35.6510 -89.1730 215° Southwest 340 391 12,400 -5,111 Descending FlightAware ADS-B
Sat 12:39:25 AM 35.6130 -89.2230 227° Southwest 324 373 11,700 -1,125 Descending FlightAware ADS-B
Sat 12:39:53 AM 35.5860 -89.2570 226° Southwest 314 361 11,200 -448 Descending FlightAware ADS-B
Sat 12:40:32 AM 35.5530 -89.3000 227° Southwest 314 361 11,200 -1,013 Level FlightAware ADS-B
Sat 12:41:10 AM 35.5070 -89.3570 225° Southwest 314 361 9,900 -1,130 Descending FlightAware ADS-B
Sat 12:41:41 AM 35.4790 -89.3900 224° Southwest 314 361 9,900  Level FlightAware ADS-B
Sat 12:41:55 AM 35.4560 -89.3980 196° South 293 337 9,900 -947 Level FlightAware ADS-B
Sat 12:42:19 AM 35.4300 -89.4180 212° Southwest 288 331 9,300 -1,297 Descending FlightAware ADS-B
Sat 12:42:32 AM 35.4130 -89.4310 212° Southwest 283 326 9,100 -1,320 Descending FlightAware ADS-B
Sat 12:43:09 AM 35.3730 -89.4600 211° Southwest 279 321 8,200 -892 Descending FlightAware ADS-B
Sat 12:43:46 AM 35.3360 -89.4880 212° Southwest 278 320 8,000 -1,095 Descending FlightAware ADS-B
Sat 12:47:32 AM 35.1170 -89.6260 207° Southwest 206 237 3,400 -1,240 Descending FlightAware ADS-B
Sat 12:47:48 AM 35.1030 -89.6360 210° Southwest 216 249 3,000 -1,200 Descending FlightAware ADS-B
Sat 12:47:57 AM 35.0970 -89.6460 234° Southwest 216 249 2,900 -214 Descending FlightAware ADS-B
Sat 12:48:16 AM 35.0880 -89.6680 243° Southwest 229 264 2,900  Level FlightAware ADS-B
Sat 12:48:27 AM 35.0830 -89.6800 243° Southwest 220 253 2,900  Level FlightAware ADS-B
Sat 12:48:55 AM 35.0730 -89.7070 246° West 220 253 2,900  Level FlightAware ADS-B
Sat 12:49:27 AM 35.0620 -89.7410 248° West 179 206 2,900  Level FlightAware ADS-B
Sat 12:49:55 AM 35.0540 -89.7630 246° West 179 206 2,900 -622 Level FlightAware ADS-B
Sat 12:51:42 AM 35.0550 -89.8750 271° West 170 196 1,500 -816 Descending FlightAware ADS-B
Sat 12:52:00 AM 35.0560 -89.8920 274° West 162 186 1,200 -857 Descending FlightAware ADS-B
Sat 12:52:17 AM 35.0560 -89.9060 270° West 164 189 1,000 -279 Descending FlightAware ADS-B
Sat 12:52:43 AM 35.0570 -89.9270 273° West 164 189 1,000  Level FlightAware ADS-B
Sat 01:00:00 AM 35.0333 -89.9667 253° West  Level FlightAware Approximate
Sat 01:01:00 AM 35.0424 -89.9767 253° West  Level Estimated

Login

Don't have an account? Register now (free) for customized features, flight alerts, and more!